sensor_id;sensor_type;location;lat;lon;timestamp;pressure;altitude;pressure_sealevel;temperature;humidity
3254;BME280;1639;42.804;23.342;2024-03-29T00:00:58;73075.69;;;-148.52;60.83
3254;BME280;1639;42.804;23.342;2024-03-29T00:03:25;73086.03;;;-148.52;60.80
3254;BME280;1639;42.804;23.342;2024-03-29T00:05:50;73100.50;;;-148.52;61.00
3254;BME280;1639;42.804;23.342;2024-03-29T00:08:15;73129.47;;;-148.52;61.67
3254;BME280;1639;42.804;23.342;2024-03-29T00:10:41;73162.56;;;-148.52;62.71
3254;BME280;1639;42.804;23.342;2024-03-29T00:13:07;73166.69;;;-148.52;63.24
3254;BME280;1639;42.804;23.342;2024-03-29T00:15:32;73166.69;;;-148.52;63.10
3254;BME280;1639;42.804;23.342;2024-03-29T00:17:58;73158.44;;;-148.52;63.43
3254;BME280;1639;42.804;23.342;2024-03-29T00:20:23;73154.28;;;-148.52;63.22
3254;BME280;1639;42.804;23.342;2024-03-29T00:22:49;73150.16;;;-148.52;62.90
3254;BME280;1639;42.804;23.342;2024-03-29T00:25:14;73166.69;;;-148.52;63.18
3254;BME280;1639;42.804;23.342;2024-03-29T00:27:40;73168.75;;;-148.52;63.03
3254;BME280;1639;42.804;23.342;2024-03-29T00:30:05;73162.56;;;-148.52;63.07
3254;BME280;1639;42.804;23.342;2024-03-29T00:32:31;73170.84;;;-148.52;63.59
3254;BME280;1639;42.804;23.342;2024-03-29T00:34:56;73164.63;;;-148.52;63.36
3254;BME280;1639;42.804;23.342;2024-03-29T00:37:23;73166.69;;;-148.52;62.96
3254;BME280;1639;42.804;23.342;2024-03-29T00:39:49;73162.56;;;-148.52;62.57
3254;BME280;1639;42.804;23.342;2024-03-29T00:42:15;73177.03;;;-148.52;63.25
3254;BME280;1639;42.804;23.342;2024-03-29T00:44:43;73170.84;;;-148.52;63.48
3254;BME280;1639;42.804;23.342;2024-03-29T00:47:09;73174.97;;;-148.52;63.62
3254;BME280;1639;42.804;23.342;2024-03-29T00:49:35;73170.84;;;-148.52;63.95
3254;BME280;1639;42.804;23.342;2024-03-29T00:52:02;73172.91;;;-148.52;63.96
3254;BME280;1639;42.804;23.342;2024-03-29T00:54:27;73172.91;;;-148.52;64.18
3254;BME280;1639;42.804;23.342;2024-03-29T00:56:53;73170.84;;;-148.52;64.20
3254;BME280;1639;42.804;23.342;2024-03-29T00:59:19;73170.84;;;-148.52;63.81
3254;BME280;1639;42.804;23.342;2024-03-29T01:01:45;73174.97;;;-148.52;63.45
3254;BME280;1639;42.804;23.342;2024-03-29T01:04:11;73174.97;;;-148.52;63.34
3254;BME280;1639;42.804;23.342;2024-03-29T01:06:38;73183.25;;;-148.52;63.35
3254;BME280;1639;42.804;23.342;2024-03-29T01:09:04;73187.38;;;-148.52;64.04
3254;BME280;1639;42.804;23.342;2024-03-29T01:11:30;73179.09;;;-148.52;63.66
3254;BME280;1639;42.804;23.342;2024-03-29T01:13:55;73191.53;;;-148.52;63.92
3254;BME280;1639;42.804;23.342;2024-03-29T01:16:21;73199.78;;;-148.52;63.76
3254;BME280;1639;42.804;23.342;2024-03-29T01:18:46;73181.19;;;-148.52;62.73
3254;BME280;1639;42.804;23.342;2024-03-29T01:21:13;73154.28;;;-148.52;61.92
3254;BME280;1639;42.804;23.342;2024-03-29T01:23:38;73141.88;;;-148.52;61.53
3254;BME280;1639;42.804;23.342;2024-03-29T01:26:05;73143.94;;;-148.52;61.59
3254;BME280;1639;42.804;23.342;2024-03-29T01:28:31;73154.28;;;-148.52;61.56
3254;BME280;1639;42.804;23.342;2024-03-29T01:30:56;73166.69;;;-148.52;61.95
3254;BME280;1639;42.804;23.342;2024-03-29T01:33:24;73148.09;;;-148.52;60.54
3254;BME280;1639;42.804;23.342;2024-03-29T01:35:49;73146.00;;;-148.52;60.63
3254;BME280;1639;42.804;23.342;2024-03-29T01:38:15;73158.44;;;-148.52;61.42
3254;BME280;1639;42.804;23.342;2024-03-29T01:40:41;73168.75;;;-148.52;61.92
3254;BME280;1639;42.804;23.342;2024-03-29T01:43:06;73166.69;;;-148.52;61.75
3254;BME280;1639;42.804;23.342;2024-03-29T01:45:35;73170.84;;;-148.52;61.79
3254;BME280;1639;42.804;23.342;2024-03-29T01:48:03;73156.34;;;-148.52;60.90
3254;BME280;1639;42.804;23.342;2024-03-29T01:50:29;73158.44;;;-148.52;60.71
3254;BME280;1639;42.804;23.342;2024-03-29T01:52:55;73162.56;;;-148.52;60.98
3254;BME280;1639;42.804;23.342;2024-03-29T01:55:20;73156.34;;;-148.52;60.54
3254;BME280;1639;42.804;23.342;2024-03-29T01:57:46;73143.94;;;-148.52;59.92
3254;BME280;1639;42.804;23.342;2024-03-29T02:00:12;73139.81;;;-148.52;59.55
3254;BME280;1639;42.804;23.342;2024-03-29T02:02:37;73117.06;;;-148.52;58.31
3254;BME280;1639;42.804;23.342;2024-03-29T02:05:03;73088.09;;;-148.52;57.49
3254;BME280;1639;42.804;23.342;2024-03-29T02:07:29;73090.16;;;-148.52;57.94
3254;BME280;1639;42.804;23.342;2024-03-29T02:09:55;73096.38;;;-148.52;57.99
3254;BME280;1639;42.804;23.342;2024-03-29T02:12:20;73086.03;;;-148.52;57.21
3254;BME280;1639;42.804;23.342;2024-03-29T02:14:46;73061.22;;;-148.52;56.14
3254;BME280;1639;42.804;23.342;2024-03-29T02:17:11;73055.00;;;-148.52;55.83
3254;BME280;1639;42.804;23.342;2024-03-29T02:19:36;73034.34;;;-148.52;55.02
3254;BME280;1639;42.804;23.342;2024-03-29T02:22:03;73021.91;;;-148.52;54.61
3254;BME280;1639;42.804;23.342;2024-03-29T02:24:30;73024.00;;;-148.52;54.59
3254;BME280;1639;42.804;23.342;2024-03-29T02:26:56;73009.50;;;-148.52;54.33
3254;BME280;1639;42.804;23.342;2024-03-29T02:29:21;72984.69;;;-148.52;53.80
3254;BME280;1639;42.804;23.342;2024-03-29T02:31:48;72957.81;;;-148.52;52.87
3254;BME280;1639;42.804;23.342;2024-03-29T02:34:13;72922.66;;;-148.52;51.90
3254;BME280;1639;42.804;23.342;2024-03-29T02:36:38;72908.16;;;-148.52;51.39
3254;BME280;1639;42.804;23.342;2024-03-29T02:39:04;72901.97;;;-148.52;51.52
3254;BME280;1639;42.804;23.342;2024-03-29T02:41:30;72910.25;;;-148.52;51.24
3254;BME280;1639;42.804;23.342;2024-03-29T02:43:56;72922.66;;;-148.52;51.33
3254;BME280;1639;42.804;23.342;2024-03-29T02:46:22;72928.84;;;-148.52;52.29
3254;BME280;1639;42.804;23.342;2024-03-29T02:48:47;72937.13;;;-148.52;53.07
3254;BME280;1639;42.804;23.342;2024-03-29T02:51:13;72974.34;;;-148.52;54.59
3254;BME280;1639;42.804;23.342;2024-03-29T02:53:38;72997.09;;;-148.52;54.52
3254;BME280;1639;42.804;23.342;2024-03-29T02:56:04;73040.53;;;-148.52;55.30
3254;BME280;1639;42.804;23.342;2024-03-29T02:58:32;73071.56;;;-148.52;56.05
3254;BME280;1639;42.804;23.342;2024-03-29T03:01:05;73059.16;;;-148.52;55.41
3254;BME280;1639;42.804;23.342;2024-03-29T03:03:30;73067.41;;;-148.52;55.82
3254;BME280;1639;42.804;23.342;2024-03-29T03:05:55;73071.56;;;-148.52;56.20
3254;BME280;1639;42.804;23.342;2024-03-29T03:08:21;73071.56;;;-148.52;56.50
3254;BME280;1639;42.804;23.342;2024-03-29T03:11:05;73077.75;;;-148.52;56.52
3254;BME280;1639;42.804;23.342;2024-03-29T03:13:30;73092.25;;;-148.52;56.67
3254;BME280;1639;42.804;23.342;2024-03-29T03:15:56;73129.47;;;-148.52;57.21
3254;BME280;1639;42.804;23.342;2024-03-29T03:18:22;73172.91;;;-148.52;58.32
3254;BME280;1639;42.804;23.342;2024-03-29T03:20:54;73199.78;;;-148.52;59.14
3254;BME280;1639;42.804;23.342;2024-03-29T03:23:21;73226.69;;;-148.52;59.97
3254;BME280;1639;42.804;23.342;2024-03-29T03:25:53;73237.03;;;-148.52;60.15
3254;BME280;1639;42.804;23.342;2024-03-29T03:28:19;73272.19;;;-148.52;61.39
3254;BME280;1639;42.804;23.342;2024-03-29T03:30:44;73288.72;;;-148.52;62.53
3254;BME280;1639;42.804;23.342;2024-03-29T03:33:10;73303.22;;;-148.52;62.39
3254;BME280;1639;42.804;23.342;2024-03-29T03:35:35;73307.34;;;-148.52;62.84
3254;BME280;1639;42.804;23.342;2024-03-29T03:38:00;73313.56;;;-148.52;63.11
3254;BME280;1639;42.804;23.342;2024-03-29T03:40:26;73325.97;;;-148.52;63.00
3254;BME280;1639;42.804;23.342;2024-03-29T03:42:51;73323.91;;;-148.52;63.15
3254;BME280;1639;42.804;23.342;2024-03-29T03:45:17;73328.03;;;-148.52;62.72
3254;BME280;1639;42.804;23.342;2024-03-29T03:47:42;73325.97;;;-148.52;62.60
3254;BME280;1639;42.804;23.342;2024-03-29T03:50:08;73330.09;;;-148.52;63.16
3254;BME280;1639;42.804;23.342;2024-03-29T03:52:33;73359.06;;;-148.52;63.74
3254;BME280;1639;42.804;23.342;2024-03-29T03:54:59;73377.66;;;-148.52;64.55
3254;BME280;1639;42.804;23.342;2024-03-29T03:57:24;73398.34;;;-148.52;65.04
3254;BME280;1639;42.804;23.342;2024-03-29T03:59:50;73408.69;;;-148.52;65.70
3254;BME280;1639;42.804;23.342;2024-03-29T04:02:15;73414.91;;;-148.52;66.52
3254;BME280;1639;42.804;23.342;2024-03-29T04:04:41;73412.84;;;-148.52;67.56
3254;BME280;1639;42.804;23.342;2024-03-29T04:07:06;73390.09;;;-148.52;66.47
3254;BME280;1639;42.804;23.342;2024-03-29T04:09:32;73390.09;;;-148.52;66.00
3254;BME280;1639;42.804;23.342;2024-03-29T04:11:57;73398.34;;;-148.52;65.96
3254;BME280;1639;42.804;23.342;2024-03-29T04:14:22;73429.38;;;-148.52;67.81
3254;BME280;1639;42.804;23.342;2024-03-29T04:16:48;73412.84;;;-148.52;66.32
3254;BME280;1639;42.804;23.342;2024-03-29T04:19:13;73429.38;;;-148.52;66.00
3254;BME280;1639;42.804;23.342;2024-03-29T04:21:39;73419.03;;;-148.52;66.34
3254;BME280;1639;42.804;23.342;2024-03-29T04:24:04;73425.25;;;-148.52;66.09
3254;BME280;1639;42.804;23.342;2024-03-29T04:26:32;73425.25;;;-148.52;66.38
3254;BME280;1639;42.804;23.342;2024-03-29T04:28:58;73419.03;;;-148.52;66.27
3254;BME280;1639;42.804;23.342;2024-03-29T04:31:23;73425.25;;;-148.52;66.02
3254;BME280;1639;42.804;23.342;2024-03-29T04:33:49;73435.59;;;-148.52;65.77
3254;BME280;1639;42.804;23.342;2024-03-29T04:36:14;73441.78;;;-148.52;65.54
3254;BME280;1639;42.804;23.342;2024-03-29T04:38:39;73450.06;;;-148.52;65.80
3254;BME280;1639;42.804;23.342;2024-03-29T04:41:05;73448.00;;;-148.52;65.68
3254;BME280;1639;42.804;23.342;2024-03-29T04:43:30;73448.00;;;-148.52;66.19
3254;BME280;1639;42.804;23.342;2024-03-29T04:46:03;73443.84;;;-148.52;65.87
3254;BME280;1639;42.804;23.342;2024-03-29T04:48:32;73450.06;;;-148.52;65.35
3254;BME280;1639;42.804;23.342;2024-03-29T04:50:57;73456.28;;;-148.52;65.92
3254;BME280;1639;42.804;23.342;2024-03-29T04:53:23;73456.28;;;-148.52;65.83
3254;BME280;1639;42.804;23.342;2024-03-29T04:55:55;73456.28;;;-148.52;66.23
3254;BME280;1639;42.804;23.342;2024-03-29T04:58:27;73462.47;;;-148.52;68.19
3254;BME280;1639;42.804;23.342;2024-03-29T05:00:53;73448.00;;;-148.52;68.00
3254;BME280;1639;42.804;23.342;2024-03-29T05:03:20;73433.53;;;-148.52;67.59
3254;BME280;1639;42.804;23.342;2024-03-29T05:05:46;73412.84;;;-148.52;67.17
3254;BME280;1639;42.804;23.342;2024-03-29T05:08:12;73381.81;;;-148.52;66.90
3254;BME280;1639;42.804;23.342;2024-03-29T05:10:41;73344.56;;;-148.52;65.48
3254;BME280;1639;42.804;23.342;2024-03-29T05:13:07;73315.63;;;-148.52;64.03
3254;BME280;1639;42.804;23.342;2024-03-29T05:15:33;73286.66;;;-148.52;63.13
3254;BME280;1639;42.804;23.342;2024-03-29T05:17:58;73265.97;;;-148.52;61.90
3254;BME280;1639;42.804;23.342;2024-03-29T05:20:24;73261.84;;;-148.52;61.58
3254;BME280;1639;42.804;23.342;2024-03-29T05:22:49;73319.75;;;-148.52;60.87
3254;BME280;1639;42.804;23.342;2024-03-29T05:25:15;73346.66;;;-148.52;61.42
3254;BME280;1639;42.804;23.342;2024-03-29T05:27:40;73373.53;;;-148.52;62.69
3254;BME280;1639;42.804;23.342;2024-03-29T05:30:06;73369.41;;;-148.52;63.07
3254;BME280;1639;42.804;23.342;2024-03-29T05:32:32;73319.75;;;-148.52;62.44
3254;BME280;1639;42.804;23.342;2024-03-29T05:34:57;73307.34;;;-148.52;62.17
3254;BME280;1639;42.804;23.342;2024-03-29T05:37:23;73261.84;;;-148.52;61.67
3254;BME280;1639;42.804;23.342;2024-03-29T05:39:53;73241.16;;;-148.52;59.66
3254;BME280;1639;42.804;23.342;2024-03-29T05:42:29;73197.72;;;-148.52;59.19
3254;BME280;1639;42.804;23.342;2024-03-29T05:44:55;73150.16;;;-148.52;58.50
3254;BME280;1639;42.804;23.342;2024-03-29T05:47:20;73125.34;;;-148.52;57.04
3254;BME280;1639;42.804;23.342;2024-03-29T05:49:46;73112.91;;;-148.52;56.51
3254;BME280;1639;42.804;23.342;2024-03-29T05:52:12;73083.97;;;-148.52;56.01
3254;BME280;1639;42.804;23.342;2024-03-29T05:54:41;73050.88;;;-148.52;54.88
3254;BME280;1639;42.804;23.342;2024-03-29T05:57:06;73026.06;;;-148.52;53.95
3254;BME280;1639;42.804;23.342;2024-03-29T05:59:32;72997.09;;;-148.52;53.14
3254;BME280;1639;42.804;23.342;2024-03-29T06:01:57;72988.81;;;-148.52;52.09
3254;BME280;1639;42.804;23.342;2024-03-29T06:04:23;72972.28;;;-148.52;52.18
3254;BME280;1639;42.804;23.342;2024-03-29T06:06:56;72972.28;;;-148.52;52.02
3254;BME280;1639;42.804;23.342;2024-03-29T06:09:23;72949.53;;;-148.52;50.31
3254;BME280;1639;42.804;23.342;2024-03-29T06:11:48;72939.19;;;-148.52;50.30
3254;BME280;1639;42.804;23.342;2024-03-29T06:14:14;72961.94;;;-148.52;50.54
3254;BME280;1639;42.804;23.342;2024-03-29T06:16:39;72928.84;;;-148.52;50.38
3254;BME280;1639;42.804;23.342;2024-03-29T06:19:23;72897.81;;;-148.52;50.73
3254;BME280;1639;42.804;23.342;2024-03-29T06:21:48;72885.41;;;-148.52;50.11
3254;BME280;1639;42.804;23.342;2024-03-29T06:24:13;72868.88;;;-148.52;48.86
3254;BME280;1639;42.804;23.342;2024-03-29T06:26:40;72848.19;;;-148.52;50.82
3254;BME280;1639;42.804;23.342;2024-03-29T06:29:07;72889.56;;;-148.52;50.02
3254;BME280;1639;42.804;23.342;2024-03-29T06:31:35;72893.69;;;-148.52;50.07
3254;BME280;1639;42.804;23.342;2024-03-29T06:34:00;72856.47;;;-148.52;50.75
3254;BME280;1639;42.804;23.342;2024-03-29T06:36:26;72819.25;;;-148.52;48.58
3254;BME280;1639;42.804;23.342;2024-03-29T06:38:52;72792.34;;;-148.52;49.06
3254;BME280;1639;42.804;23.342;2024-03-29T06:41:18;72773.75;;;-148.52;48.33
3254;BME280;1639;42.804;23.342;2024-03-29T06:43:43;72753.06;;;-148.52;48.51
3254;BME280;1639;42.804;23.342;2024-03-29T06:46:10;72740.66;;;-148.52;49.16
3254;BME280;1639;42.804;23.342;2024-03-29T06:48:36;72730.31;;;-148.52;48.94
3254;BME280;1639;42.804;23.342;2024-03-29T06:51:02;72703.44;;;-148.52;48.03
3254;BME280;1639;42.804;23.342;2024-03-29T06:53:28;72680.69;;;-148.52;47.33
3254;BME280;1639;42.804;23.342;2024-03-29T06:55:55;72651.72;;;-148.52;46.29
3254;BME280;1639;42.804;23.342;2024-03-29T06:58:21;72635.19;;;-148.52;47.43
3254;BME280;1639;42.804;23.342;2024-03-29T07:00:47;72641.38;;;-148.52;46.54
3254;BME280;1639;42.804;23.342;2024-03-29T07:03:15;72581.41;;;-148.52;47.37
3254;BME280;1639;42.804;23.342;2024-03-29T07:05:40;72537.97;;;-148.52;45.53
3254;BME280;1639;42.804;23.342;2024-03-29T07:08:06;72488.34;;;-148.52;45.08
3254;BME280;1639;42.804;23.342;2024-03-29T07:10:31;72451.13;;;-148.52;44.15
3254;BME280;1639;42.804;23.342;2024-03-29T07:12:57;72428.38;;;-148.52;44.63
3254;BME280;1639;42.804;23.342;2024-03-29T07:15:23;72380.81;;;-148.52;42.32
3254;BME280;1639;42.804;23.342;2024-03-29T07:17:48;72360.13;;;-148.52;41.24
3254;BME280;1639;42.804;23.342;2024-03-29T07:20:16;72339.47;;;-148.52;39.77
3254;BME280;1639;42.804;23.342;2024-03-29T07:22:42;72314.66;;;-148.52;39.62
3254;BME280;1639;42.804;23.342;2024-03-29T07:25:08;72310.50;;;-148.52;40.46
3254;BME280;1639;42.804;23.342;2024-03-29T07:27:34;72281.56;;;-148.52;41.16
3254;BME280;1639;42.804;23.342;2024-03-29T07:30:02;72267.09;;;-148.52;41.05
3254;BME280;1639;42.804;23.342;2024-03-29T07:32:29;72240.22;;;-148.52;38.83
3254;BME280;1639;42.804;23.342;2024-03-29T07:34:54;72217.47;;;-148.52;38.85
3254;BME280;1639;42.804;23.342;2024-03-29T07:37:23;72182.31;;;-148.52;39.55
3254;BME280;1639;42.804;23.342;2024-03-29T07:39:48;72153.34;;;-148.52;38.83
3254;BME280;1639;42.804;23.342;2024-03-29T07:42:14;72124.41;;;-148.52;38.69
3254;BME280;1639;42.804;23.342;2024-03-29T07:44:39;72097.53;;;-148.52;37.82
3254;BME280;1639;42.804;23.342;2024-03-29T07:47:05;72095.47;;;-148.52;36.20
3254;BME280;1639;42.804;23.342;2024-03-29T07:49:30;72095.47;;;-148.52;37.40
3254;BME280;1639;42.804;23.342;2024-03-29T07:51:55;72070.66;;;-148.52;36.27
3254;BME280;1639;42.804;23.342;2024-03-29T07:54:21;72078.91;;;-148.52;35.62
3254;BME280;1639;42.804;23.342;2024-03-29T07:56:46;72081.00;;;-148.52;36.04
3254;BME280;1639;42.804;23.342;2024-03-29T07:59:11;72066.50;;;-148.52;35.22
3254;BME280;1639;42.804;23.342;2024-03-29T08:01:37;72062.38;;;-148.52;35.03
3254;BME280;1639;42.804;23.342;2024-03-29T08:04:02;72072.72;;;-148.52;35.68
3254;BME280;1639;42.804;23.342;2024-03-29T08:06:28;72049.97;;;-148.52;34.96
3254;BME280;1639;42.804;23.342;2024-03-29T08:08:53;72054.09;;;-148.52;34.72
3254;BME280;1639;42.804;23.342;2024-03-29T08:11:19;72047.91;;;-148.52;35.85
3254;BME280;1639;42.804;23.342;2024-03-29T08:13:44;72021.03;;;-148.52;34.49
3254;BME280;1639;42.804;23.342;2024-03-29T08:16:10;72002.41;;;-148.52;33.88
3254;BME280;1639;42.804;23.342;2024-03-29T08:18:36;72000.34;;;-148.52;35.09
3254;BME280;1639;42.804;23.342;2024-03-29T08:21:02;71987.94;;;-148.52;34.06
3254;BME280;1639;42.804;23.342;2024-03-29T08:23:28;71977.59;;;-148.52;33.93
3254;BME280;1639;42.804;23.342;2024-03-29T08:25:53;71977.59;;;-148.52;34.10
3254;BME280;1639;42.804;23.342;2024-03-29T08:28:22;71979.66;;;-148.52;34.79
3254;BME280;1639;42.804;23.342;2024-03-29T08:31:00;71963.13;;;-148.52;34.36
3254;BME280;1639;42.804;23.342;2024-03-29T08:33:26;71938.31;;;-148.52;33.32
3254;BME280;1639;42.804;23.342;2024-03-29T08:35:52;71944.53;;;-148.52;34.77
3254;BME280;1639;42.804;23.342;2024-03-29T08:38:18;71925.91;;;-148.52;34.72
3254;BME280;1639;42.804;23.342;2024-03-29T08:40:43;71896.97;;;-148.52;33.94
3254;BME280;1639;42.804;23.342;2024-03-29T08:43:13;71896.97;;;-148.52;33.80
3254;BME280;1639;42.804;23.342;2024-03-29T08:45:40;71884.56;;;-148.52;32.94
3254;BME280;1639;42.804;23.342;2024-03-29T08:48:09;71896.97;;;-148.52;32.65
3254;BME280;1639;42.804;23.342;2024-03-29T08:50:35;71874.22;;;-148.52;33.73
3254;BME280;1639;42.804;23.342;2024-03-29T08:53:01;71855.59;;;-148.52;33.89
3254;BME280;1639;42.804;23.342;2024-03-29T08:55:27;71822.53;;;-148.52;33.38
3254;BME280;1639;42.804;23.342;2024-03-29T08:57:53;71830.81;;;-148.52;32.43
3254;BME280;1639;42.804;23.342;2024-03-29T09:00:18;71816.31;;;-148.52;32.71
3254;BME280;1639;42.804;23.342;2024-03-29T09:02:46;71799.78;;;-148.52;32.12
3254;BME280;1639;42.804;23.342;2024-03-29T09:05:11;71808.06;;;-148.52;32.62
3254;BME280;1639;42.804;23.342;2024-03-29T09:07:36;71801.84;;;-148.52;32.23
3254;BME280;1639;42.804;23.342;2024-03-29T09:10:04;71793.59;;;-148.52;32.85
3254;BME280;1639;42.804;23.342;2024-03-29T09:12:29;71785.31;;;-148.52;32.90
3254;BME280;1639;42.804;23.342;2024-03-29T09:14:55;71760.50;;;-148.52;31.82
3254;BME280;1639;42.804;23.342;2024-03-29T09:17:21;71729.50;;;-148.52;31.87
3254;BME280;1639;42.804;23.342;2024-03-29T09:19:52;71698.47;;;-148.52;32.10
3254;BME280;1639;42.804;23.342;2024-03-29T09:22:18;71702.59;;;-148.52;30.47
3254;BME280;1639;42.804;23.342;2024-03-29T09:24:44;71698.47;;;-148.52;29.91
3254;BME280;1639;42.804;23.342;2024-03-29T09:27:10;71694.34;;;-148.52;31.10
3254;BME280;1639;42.804;23.342;2024-03-29T09:29:35;71655.06;;;-148.52;31.00
3254;BME280;1639;42.804;23.342;2024-03-29T09:32:00;71640.59;;;-148.52;30.81
3254;BME280;1639;42.804;23.342;2024-03-29T09:34:30;71630.25;;;-148.52;29.42
3254;BME280;1639;42.804;23.342;2024-03-29T09:36:58;71632.31;;;-148.52;29.86
3254;BME280;1639;42.804;23.342;2024-03-29T09:39:23;71624.03;;;-148.52;29.49
3254;BME280;1639;42.804;23.342;2024-03-29T09:41:49;71644.72;;;-148.52;29.24
3254;BME280;1639;42.804;23.342;2024-03-29T09:44:15;71624.03;;;-148.52;29.84
3254;BME280;1639;42.804;23.342;2024-03-29T09:46:42;71582.69;;;-148.52;29.69
3254;BME280;1639;42.804;23.342;2024-03-29T09:49:08;71580.63;;;-148.52;28.96
3254;BME280;1639;42.804;23.342;2024-03-29T09:51:34;71599.22;;;-148.52;29.38
3254;BME280;1639;42.804;23.342;2024-03-29T09:54:00;71584.75;;;-148.52;28.19
3254;BME280;1639;42.804;23.342;2024-03-29T09:56:28;71578.56;;;-148.52;28.06
3254;BME280;1639;42.804;23.342;2024-03-29T09:58:54;71568.22;;;-148.52;28.26
3254;BME280;1639;42.804;23.342;2024-03-29T10:01:20;71578.56;;;-148.52;27.32
3254;BME280;1639;42.804;23.342;2024-03-29T10:03:48;71555.81;;;-148.52;27.89
3254;BME280;1639;42.804;23.342;2024-03-29T10:06:17;71564.09;;;-148.52;28.78
3254;BME280;1639;42.804;23.342;2024-03-29T10:08:44;71533.06;;;-148.52;27.90
3254;BME280;1639;42.804;23.342;2024-03-29T10:11:10;71504.13;;;-148.52;27.59
3254;BME280;1639;42.804;23.342;2024-03-29T10:13:36;71516.53;;;-148.52;29.34
3254;BME280;1639;42.804;23.342;2024-03-29T10:16:03;71485.53;;;-148.52;28.80
3254;BME280;1639;42.804;23.342;2024-03-29T10:18:29;71508.25;;;-148.52;26.25
3254;BME280;1639;42.804;23.342;2024-03-29T10:23:29;71502.06;;;-148.52;27.48
3254;BME280;1639;42.804;23.342;2024-03-29T10:25:55;71520.66;;;-148.52;27.05
3254;BME280;1639;42.804;23.342;2024-03-29T10:28:21;71504.13;;;-148.52;27.52
3254;BME280;1639;42.804;23.342;2024-03-29T10:30:46;71506.19;;;-148.52;27.51
3254;BME280;1639;42.804;23.342;2024-03-29T10:33:13;71508.25;;;-148.52;27.53
3254;BME280;1639;42.804;23.342;2024-03-29T10:35:41;71481.38;;;-148.52;27.37
3254;BME280;1639;42.804;23.342;2024-03-29T10:38:07;71464.84;;;-148.52;27.19
3254;BME280;1639;42.804;23.342;2024-03-29T10:40:34;71483.44;;;-148.52;27.32
3254;BME280;1639;42.804;23.342;2024-03-29T10:42:59;71475.19;;;-148.52;28.11
3254;BME280;1639;42.804;23.342;2024-03-29T10:45:29;71452.44;;;-148.52;26.85
3254;BME280;1639;42.804;23.342;2024-03-29T10:47:55;71446.25;;;-148.52;28.21
3254;BME280;1639;42.804;23.342;2024-03-29T10:50:22;71471.06;;;-148.52;27.40
3254;BME280;1639;42.804;23.342;2024-03-29T10:52:48;71477.25;;;-148.52;28.13
3254;BME280;1639;42.804;23.342;2024-03-29T10:55:14;71466.91;;;-148.52;27.75
3254;BME280;1639;42.804;23.342;2024-03-29T10:57:40;71468.97;;;-148.52;27.20
3254;BME280;1639;42.804;23.342;2024-03-29T11:03:28;71442.09;;;-148.52;27.90
3254;BME280;1639;42.804;23.342;2024-03-29T11:05:35;71502.06;;;-148.52;28.20
3254;BME280;1639;42.804;23.342;2024-03-29T11:08:06;71553.75;;;-148.52;29.09
3254;BME280;1639;42.804;23.342;2024-03-29T11:10:42;71574.41;;;-148.52;28.26
3254;BME280;1639;42.804;23.342;2024-03-29T11:16:00;71590.97;;;-148.52;29.06
3254;BME280;1639;42.804;23.342;2024-03-29T11:18:27;71601.31;;;-148.52;29.95
3254;BME280;1639;42.804;23.342;2024-03-29T11:20:53;71570.28;;;-148.52;30.27
3254;BME280;1639;42.804;23.342;2024-03-29T11:23:20;71549.63;;;-148.52;29.53
3254;BME280;1639;42.804;23.342;2024-03-29T11:25:49;71508.25;;;-148.52;29.30
3254;BME280;1639;42.804;23.342;2024-03-29T11:28:27;71514.47;;;-148.52;30.01
3254;BME280;1639;42.804;23.342;2024-03-29T11:30:58;71500.00;;;-148.52;28.85
3254;BME280;1639;42.804;23.342;2024-03-29T11:35:54;71553.75;;;-148.52;28.35
3254;BME280;1639;42.804;23.342;2024-03-29T11:38:19;71578.56;;;-148.52;30.69
3254;BME280;1639;42.804;23.342;2024-03-29T11:41:00;71549.63;;;-148.52;29.13
3254;BME280;1639;42.804;23.342;2024-03-29T11:43:25;71559.94;;;-148.52;28.79
3254;BME280;1639;42.804;23.342;2024-03-29T11:45:54;71588.91;;;-148.52;28.86
3254;BME280;1639;42.804;23.342;2024-03-29T11:48:23;71570.28;;;-148.52;29.45
3254;BME280;1639;42.804;23.342;2024-03-29T11:50:51;71539.28;;;-148.52;28.18
3254;BME280;1639;42.804;23.342;2024-03-29T11:53:17;71495.84;;;-148.52;28.31
3254;BME280;1639;42.804;23.342;2024-03-29T11:55:42;71500.00;;;-148.52;28.18
3254;BME280;1639;42.804;23.342;2024-03-29T11:58:08;71508.25;;;-148.52;28.79
3254;BME280;1639;42.804;23.342;2024-03-29T12:00:33;71508.25;;;-148.52;28.97
3254;BME280;1639;42.804;23.342;2024-03-29T12:02:58;71520.66;;;-148.52;27.83
3254;BME280;1639;42.804;23.342;2024-03-29T12:05:24;71545.47;;;-148.52;28.37
3254;BME280;1639;42.804;23.342;2024-03-29T12:07:50;71533.06;;;-148.52;28.03
3254;BME280;1639;42.804;23.342;2024-03-29T12:10:17;71528.94;;;-148.52;27.98
3254;BME280;1639;42.804;23.342;2024-03-29T12:12:42;71531.00;;;-148.52;28.51
3254;BME280;1639;42.804;23.342;2024-03-29T12:15:08;71518.59;;;-148.52;29.19
3254;BME280;1639;42.804;23.342;2024-03-29T12:17:34;71545.47;;;-148.52;27.77
3254;BME280;1639;42.804;23.342;2024-03-29T12:20:00;71557.88;;;-148.52;27.52
3254;BME280;1639;42.804;23.342;2024-03-29T12:22:32;71557.88;;;-148.52;27.98
3254;BME280;1639;42.804;23.342;2024-03-29T12:24:58;71547.53;;;-148.52;29.83
3254;BME280;1639;42.804;23.342;2024-03-29T12:27:23;71508.25;;;-148.52;28.15
3254;BME280;1639;42.804;23.342;2024-03-29T12:29:50;71483.44;;;-148.52;28.26
3254;BME280;1639;42.804;23.342;2024-03-29T12:32:19;71464.84;;;-148.52;28.20
3254;BME280;1639;42.804;23.342;2024-03-29T12:34:45;71471.06;;;-148.52;27.66
3254;BME280;1639;42.804;23.342;2024-03-29T12:37:12;71450.38;;;-148.52;27.01
3254;BME280;1639;42.804;23.342;2024-03-29T12:39:40;71475.19;;;-148.52;27.64
3254;BME280;1639;42.804;23.342;2024-03-29T12:42:07;71493.78;;;-148.52;28.28
3254;BME280;1639;42.804;23.342;2024-03-29T12:44:32;71466.91;;;-148.52;28.11
3254;BME280;1639;42.804;23.342;2024-03-29T12:46:59;71448.31;;;-148.52;28.02
3254;BME280;1639;42.804;23.342;2024-03-29T12:49:24;71431.78;;;-148.52;27.82
3254;BME280;1639;42.804;23.342;2024-03-29T12:51:51;71425.56;;;-148.52;27.31
3254;BME280;1639;42.804;23.342;2024-03-29T12:54:16;71423.50;;;-148.52;27.63
3254;BME280;1639;42.804;23.342;2024-03-29T12:56:43;71411.09;;;-148.52;27.66